createdAt,value
2022-09-04T00:01:08.278Z,92.77
2022-09-04T00:03:47.795Z,92.96
2022-09-04T00:06:25.576Z,92.85
2022-09-04T00:09:12.845Z,93.02
2022-09-04T00:12:01.722Z,92.92
2022-09-04T00:14:50.006Z,92.81
2022-09-04T00:17:32.747Z,93.23
2022-09-04T00:20:14.592Z,93.00
2022-09-04T00:22:54.641Z,93.10
2022-09-04T00:25:47.277Z,92.80
2022-09-04T00:28:34.003Z,93.26
2022-09-04T00:31:39.439Z,93.22
2022-09-04T00:34:25.018Z,93.16
2022-09-04T00:37:01.370Z,93.16
2022-09-04T00:39:40.326Z,92.97
2022-09-04T00:42:40.084Z,92.94
2022-09-04T00:45:34.263Z,92.40
2022-09-04T00:48:20.916Z,91.40
2022-09-04T00:51:12.542Z,91.38
2022-09-04T00:53:53.296Z,91.83
2022-09-04T00:56:50.057Z,92.09
2022-09-04T00:59:21.746Z,92.29
2022-09-04T01:01:56.620Z,92.64
2022-09-04T01:04:28.429Z,91.65
2022-09-04T01:07:27.418Z,91.04
2022-09-04T01:10:31.437Z,90.63
2022-09-04T01:13:35.198Z,89.56
2022-09-04T01:16:15.601Z,87.92
2022-09-04T01:18:56.984Z,87.92
2022-09-04T01:22:10.319Z,88.65
2022-09-04T01:25:16.047Z,90.90
2022-09-04T01:28:07.831Z,90.72
2022-09-04T01:31:15.119Z,91.12
2022-09-04T01:34:26.595Z,90.46
2022-09-04T01:37:08.032Z,86.68
2022-09-04T01:39:38.725Z,85.54
2022-09-04T01:42:18.727Z,82.38
2022-09-04T01:44:49.089Z,80.90
2022-09-04T01:47:41.270Z,79.16
2022-09-04T01:50:22.975Z,75.03
2022-09-04T01:53:06.064Z,75.33
2022-09-04T01:55:53.112Z,77.85
2022-09-04T01:58:28.298Z,80.47
2022-09-04T02:01:39.190Z,86.56
2022-09-04T02:04:31.766Z,85.68
2022-09-04T02:07:06.026Z,81.93
2022-09-04T02:10:13.271Z,79.24
2022-09-04T02:12:59.018Z,77.70
2022-09-04T02:16:07.392Z,74.52
2022-09-04T02:18:39.352Z,74.99
2022-09-04T02:21:40.302Z,73.93
2022-09-04T02:24:26.004Z,76.38
2022-09-04T02:27:32.734Z,78.19
2022-09-04T02:30:04.638Z,80.70
2022-09-04T02:32:44.775Z,84.26
2022-09-04T02:35:32.240Z,82.50
2022-09-04T02:38:16.147Z,79.14
2022-09-04T02:41:03.980Z,75.56
2022-09-04T02:44:03.671Z,71.86
2022-09-04T02:46:44.503Z,74.25
2022-09-04T02:49:25.104Z,74.18
2022-09-04T02:52:19.263Z,72.79
2022-09-04T02:55:06.948Z,71.41
2022-09-04T02:58:15.267Z,70.60
2022-09-04T03:00:56.734Z,69.67
2022-09-04T03:03:38.867Z,67.95
2022-09-04T03:06:23.426Z,71.14
2022-09-04T03:09:09.680Z,73.72
2022-09-04T03:11:46.726Z,76.71
2022-09-04T03:14:43.950Z,77.68
2022-09-04T03:17:22.712Z,80.16
2022-09-04T03:20:02.693Z,82.15
2022-09-04T03:22:40.841Z,82.65
2022-09-04T03:25:12.899Z,81.36
2022-09-04T03:27:42.566Z,81.57
2022-09-04T03:30:14.389Z,82.61
2022-09-04T03:33:04.459Z,83.67
2022-09-04T03:36:00.516Z,84.16
2022-09-04T03:39:06.114Z,84.40
2022-09-04T03:42:17.405Z,85.19
2022-09-04T03:45:21.511Z,85.57
2022-09-04T03:48:11.401Z,86.09
2022-09-04T03:50:59.701Z,86.16
2022-09-04T03:53:46.552Z,85.60
2022-09-04T03:56:27.141Z,85.13
2022-09-04T03:59:07.781Z,85.31
2022-09-04T04:01:40.536Z,84.00
2022-09-04T04:04:53.505Z,84.00
2022-09-04T04:07:43.622Z,83.86
2022-09-04T04:10:20.241Z,83.22
2022-09-04T04:13:04.916Z,81.41
2022-09-04T04:16:11.723Z,79.86
2022-09-04T04:19:17.468Z,83.18
2022-09-04T04:21:58.709Z,76.48
2022-09-04T04:24:46.156Z,73.20
2022-09-04T04:27:36.897Z,73.76
2022-09-04T04:30:19.098Z,70.33
2022-09-04T04:33:18.958Z,67.20
2022-09-04T04:36:06.386Z,67.62
2022-09-04T04:39:25.791Z,64.90
2022-09-04T04:42:09.775Z,62.88
2022-09-04T04:45:08.596Z,61.53
2022-09-04T04:48:08.748Z,63.65
2022-09-04T04:51:14.170Z,62.96
2022-09-04T04:54:19.813Z,61.51
2022-09-04T04:56:58.577Z,60.09
2022-09-04T05:00:07.498Z,60.05
2022-09-04T05:02:52.415Z,60.34
2022-09-04T05:05:44.284Z,57.60
2022-09-04T05:08:39.605Z,57.10
2022-09-04T05:11:41.081Z,56.07
2022-09-04T05:14:48.080Z,59.73
2022-09-04T05:17:33.250Z,63.30
2022-09-04T05:20:21.111Z,65.76
2022-09-04T05:23:17.567Z,64.99
2022-09-04T05:26:18.028Z,64.17
2022-09-04T05:28:55.882Z,63.03
2022-09-04T05:31:45.958Z,63.07
2022-09-04T05:34:17.840Z,63.34
2022-09-04T05:37:40.672Z,61.76
2022-09-04T05:40:37.056Z,60.39
2022-09-04T05:43:11.928Z,56.89
2022-09-04T05:45:46.498Z,55.68
2022-09-04T05:48:42.339Z,55.91
2022-09-04T05:51:38.559Z,53.23
2022-09-04T05:54:22.165Z,52.25
2022-09-04T05:57:17.354Z,53.89
2022-09-04T06:00:05.268Z,55.12
2022-09-04T06:02:56.114Z,51.50
2022-09-04T06:05:46.253Z,49.36
2022-09-04T06:08:33.600Z,45.57
2022-09-04T06:11:10.186Z,44.84
2022-09-04T06:13:52.929Z,45.15
2022-09-04T06:16:30.996Z,46.23
2022-09-04T06:19:25.126Z,46.55
2022-09-04T06:22:15.358Z,42.70
2022-09-04T06:25:05.942Z,44.89
2022-09-04T06:27:47.244Z,45.01
2022-09-04T06:30:18.452Z,42.22
2022-09-04T06:33:10.945Z,49.64
2022-09-04T06:36:12.768Z,46.44
2022-09-04T06:38:50.083Z,45.59
2022-09-04T06:41:48.303Z,47.90
2022-09-04T06:44:41.914Z,44.97
2022-09-04T06:47:31.805Z,46.74
2022-09-04T06:50:22.408Z,45.63
2022-09-04T06:53:27.603Z,45.34
2022-09-04T06:56:15.060Z,43.40
2022-09-04T06:59:00.582Z,41.53
2022-09-04T07:02:01.486Z,41.84
2022-09-04T07:04:56.276Z,37.80
2022-09-04T07:07:37.955Z,36.78
2022-09-04T07:10:22.793Z,37.93
2022-09-04T07:13:11.415Z,36.87
2022-09-04T07:16:06.480Z,41.72
2022-09-04T07:18:44.190Z,43.44
2022-09-04T07:21:41.775Z,46.18
2022-09-04T07:24:30.243Z,43.86
2022-09-04T07:27:10.499Z,44.08
2022-09-04T07:30:02.895Z,45.00
2022-09-04T07:32:51.858Z,43.14
2022-09-04T07:35:34.860Z,41.70
2022-09-04T07:38:26.389Z,39.58
2022-09-04T07:41:17.893Z,41.28
2022-09-04T07:43:48.412Z,41.85
2022-09-04T07:46:24.199Z,43.99
2022-09-04T07:49:23.564Z,47.18
2022-09-04T07:52:10.646Z,48.97
2022-09-04T07:54:51.236Z,49.81
2022-09-04T07:57:34.899Z,51.39
2022-09-04T08:00:19.167Z,51.82
2022-09-04T08:02:57.203Z,52.81
2022-09-04T08:05:32.899Z,52.42
2022-09-04T08:08:31.740Z,52.92
2022-09-04T08:11:14.436Z,52.09
2022-09-04T08:13:52.144Z,50.69
2022-09-04T08:16:34.874Z,50.05
2022-09-04T08:19:24.767Z,47.82
2022-09-04T08:21:55.083Z,44.20
2022-09-04T08:25:01.610Z,44.18
2022-09-04T08:27:44.734Z,45.04
2022-09-04T08:30:15.851Z,46.43
2022-09-04T08:33:10.756Z,48.58
2022-09-04T08:36:00.575Z,49.82
2022-09-04T08:38:43.367Z,50.83
2022-09-04T08:41:30.901Z,50.78
2022-09-04T08:44:27.630Z,50.05
2022-09-04T08:47:28.315Z,50.43
2022-09-04T08:50:21.491Z,50.71
2022-09-04T08:53:19.486Z,50.55
2022-09-04T08:55:56.786Z,50.84
2022-09-04T08:58:44.412Z,50.89
2022-09-04T09:01:49.352Z,50.81
2022-09-04T09:04:39.509Z,50.65
2022-09-04T09:07:45.523Z,50.28
2022-09-04T09:10:56.027Z,49.95
2022-09-04T09:13:52.750Z,50.22
2022-09-04T09:16:21.656Z,50.65
2022-09-04T09:19:12.489Z,50.72
2022-09-04T09:21:46.162Z,50.76
2022-09-04T09:24:52.089Z,49.96
2022-09-04T09:27:41.887Z,50.57
2022-09-04T09:30:13.784Z,50.69
2022-09-04T09:32:54.584Z,50.78
2022-09-04T09:35:56.412Z,50.95
2022-09-04T09:38:37.422Z,51.46
2022-09-04T09:41:39.802Z,51.75
2022-09-04T09:44:56.560Z,51.45
2022-09-04T09:47:37.612Z,51.55
2022-09-04T09:50:15.710Z,51.51
2022-09-04T09:53:15.358Z,50.76
2022-09-04T09:56:11.947Z,51.26
2022-09-04T09:59:10.813Z,52.10
2022-09-04T10:02:01.733Z,52.30
2022-09-04T10:05:05.245Z,52.55
2022-09-04T10:07:55.126Z,52.42
2022-09-04T10:11:04.283Z,53.18
2022-09-04T10:14:04.753Z,53.26
2022-09-04T10:16:43.403Z,53.39
2022-09-04T10:19:43.792Z,53.63
2022-09-04T10:22:40.430Z,53.82
2022-09-04T10:25:24.582Z,52.63
2022-09-04T10:28:14.957Z,53.75
2022-09-04T10:31:00.484Z,53.84
2022-09-04T10:33:58.882Z,54.05
2022-09-04T10:37:10.609Z,54.27
2022-09-04T10:39:57.990Z,54.90
2022-09-04T10:43:01.904Z,55.27
2022-09-04T10:45:42.420Z,55.55
2022-09-04T10:48:41.842Z,55.73
2022-09-04T10:51:46.312Z,55.92
2022-09-04T10:54:45.550Z,55.97
2022-09-04T10:57:51.253Z,56.08
2022-09-04T11:00:31.949Z,56.79
2022-09-04T11:03:28.943Z,56.96
2022-09-04T11:06:11.624Z,57.04
2022-09-04T11:09:05.836Z,57.49
2022-09-04T11:12:12.620Z,58.00
2022-09-04T11:14:56.676Z,58.03
2022-09-04T11:17:31.635Z,58.24
2022-09-04T11:20:53.689Z,59.05
2022-09-04T11:23:41.041Z,59.10
2022-09-04T11:26:48.153Z,59.27
2022-09-04T11:29:56.454Z,59.89
2022-09-04T11:32:53.672Z,60.16
2022-09-04T11:35:47.428Z,60.38
2022-09-04T11:38:44.221Z,60.99
2022-09-04T11:41:46.856Z,61.29
2022-09-04T11:44:52.857Z,61.64
2022-09-04T11:47:59.019Z,61.88
2022-09-04T11:51:03.094Z,62.11
2022-09-04T11:53:41.225Z,62.71
2022-09-04T11:56:20.424Z,62.56
2022-09-04T11:59:09.937Z,63.46
2022-09-04T12:02:17.623Z,63.60
2022-09-04T12:05:14.364Z,63.32
2022-09-04T12:07:58.606Z,63.11
2022-09-04T12:10:57.382Z,63.86
2022-09-04T12:13:53.625Z,63.70
2022-09-04T12:16:33.567Z,64.12
2022-09-04T12:19:19.047Z,64.78
2022-09-04T12:22:19.937Z,65.01
2022-09-04T12:25:11.897Z,65.35
2022-09-04T12:27:52.760Z,65.43
2022-09-04T12:30:44.874Z,65.18
2022-09-04T12:33:45.147Z,65.60
2022-09-04T12:36:52.705Z,66.08
2022-09-04T12:39:45.596Z,65.97
2022-09-04T12:42:39.898Z,65.93
2022-09-04T12:45:27.351Z,66.00
2022-09-04T12:48:30.292Z,65.89
2022-09-04T12:51:12.418Z,65.80
2022-09-04T12:54:06.045Z,66.16
2022-09-04T12:56:44.609Z,66.39
2022-09-04T12:59:52.903Z,66.28
2022-09-04T13:02:40.507Z,66.76
2022-09-04T13:05:24.592Z,66.94
2022-09-04T13:07:59.202Z,66.99
2022-09-04T13:10:48.288Z,66.71
2022-09-04T13:13:22.990Z,66.48
2022-09-04T13:16:00.966Z,66.84
2022-09-04T13:19:12.375Z,67.24
2022-09-04T13:22:18.142Z,67.28
2022-09-04T13:25:08.237Z,67.47
2022-09-04T13:28:04.813Z,67.60
2022-09-04T13:30:36.625Z,67.41
2022-09-04T13:33:21.140Z,67.15
2022-09-04T13:36:08.608Z,66.91
2022-09-04T13:39:04.766Z,67.53
2022-09-04T13:42:26.024Z,67.24
2022-09-04T13:44:57.859Z,66.93
2022-09-04T13:47:32.075Z,67.17
2022-09-04T13:50:22.474Z,67.90
2022-09-04T13:53:01.141Z,67.14
2022-09-04T13:55:43.308Z,67.88
2022-09-04T13:58:21.700Z,67.52
2022-09-04T14:00:59.916Z,67.55
2022-09-04T14:03:49.270Z,67.94
2022-09-04T14:06:21.546Z,68.12
2022-09-04T14:09:05.352Z,67.93
2022-09-04T14:12:14.071Z,68.08
2022-09-04T14:14:45.923Z,67.65
2022-09-04T14:17:16.994Z,67.87
2022-09-04T14:19:54.913Z,68.29
2022-09-04T14:22:46.675Z,68.04
2022-09-04T14:25:39.642Z,68.91
2022-09-04T14:28:13.815Z,68.60
2022-09-04T14:31:10.787Z,68.62
2022-09-04T14:33:43.673Z,68.49
2022-09-04T14:36:43.321Z,69.08
2022-09-04T14:39:30.306Z,69.36
2022-09-04T14:42:23.626Z,69.10
2022-09-04T14:45:13.084Z,68.75
2022-09-04T14:47:55.385Z,69.17
2022-09-04T14:50:30.088Z,68.77
2022-09-04T14:53:15.853Z,69.08
2022-09-04T14:56:13.905Z,68.97
2022-09-04T14:59:10.587Z,69.00
2022-09-04T15:02:04.178Z,69.01
2022-09-04T15:04:48.120Z,69.37
2022-09-04T15:07:56.841Z,68.93
2022-09-04T15:10:36.741Z,69.40
2022-09-04T15:13:29.927Z,69.66
2022-09-04T15:16:00.038Z,69.10
2022-09-04T15:18:35.024Z,70.08
2022-09-04T15:21:21.359Z,69.63
2022-09-04T15:24:08.654Z,70.12
2022-09-04T15:26:46.849Z,70.67
2022-09-04T15:29:36.623Z,69.83
2022-09-04T15:32:13.671Z,69.97
2022-09-04T15:34:43.213Z,70.63
2022-09-04T15:37:15.120Z,70.39
2022-09-04T15:40:11.436Z,70.76
2022-09-04T15:42:47.559Z,70.78
2022-09-04T15:45:31.782Z,70.66
2022-09-04T15:48:11.820Z,70.43
2022-09-04T15:51:11.825Z,70.99
2022-09-04T15:54:33.144Z,70.71
2022-09-04T15:57:20.527Z,70.89
2022-09-04T16:00:15.218Z,70.60
2022-09-04T16:02:55.351Z,71.01
2022-09-04T16:05:51.949Z,71.08
2022-09-04T16:08:24.368Z,71.17
2022-09-04T16:11:22.413Z,70.67
2022-09-04T16:13:51.131Z,70.91
2022-09-04T16:16:26.562Z,71.42
2022-09-04T16:19:27.437Z,71.19
2022-09-04T16:22:35.501Z,70.96
2022-09-04T16:25:13.284Z,71.42
2022-09-04T16:27:52.487Z,71.51
2022-09-04T16:30:42.325Z,71.76
2022-09-04T16:33:28.662Z,71.93
2022-09-04T16:36:09.453Z,71.31
2022-09-04T16:38:57.855Z,72.31
2022-09-04T16:41:35.922Z,72.19
2022-09-04T16:44:04.701Z,72.56
2022-09-04T16:46:38.041Z,72.45
2022-09-04T16:49:26.849Z,72.49
2022-09-04T16:52:27.470Z,72.15
2022-09-04T16:55:03.096Z,72.44
2022-09-04T16:58:13.175Z,72.46
2022-09-04T17:01:09.088Z,72.79
2022-09-04T17:04:15.906Z,72.93
2022-09-04T17:07:09.906Z,73.12
2022-09-04T17:09:50.905Z,73.07
2022-09-04T17:12:44.056Z,73.94
2022-09-04T17:15:34.456Z,74.29
2022-09-04T17:18:10.168Z,74.43
2022-09-04T17:22:09.862Z,74.82
2022-09-04T17:29:02.284Z,74.92
2022-09-04T17:29:15.423Z,75.12
2022-09-04T17:29:50.125Z,74.61
2022-09-04T17:33:30.566Z,75.34
2022-09-04T17:40:39.787Z,75.21
2022-09-04T17:40:49.123Z,75.26
2022-09-04T17:41:57.051Z,75.40
2022-09-04T17:44:55.494Z,75.64
2022-09-04T17:47:43.332Z,75.53
2022-09-04T17:50:23.147Z,75.44
2022-09-04T17:53:14.654Z,75.73
2022-09-04T17:56:18.408Z,75.74
2022-09-04T17:58:49.733Z,76.03
2022-09-04T18:02:04.013Z,76.42
2022-09-04T18:04:51.537Z,76.94
2022-09-04T18:08:06.641Z,76.83
2022-09-04T18:10:25.514Z,76.81
2022-09-04T18:13:36.501Z,77.62
2022-09-04T18:16:12.461Z,78.20
2022-09-04T18:18:45.792Z,78.07
2022-09-04T18:21:23.596Z,77.66
2022-09-04T18:24:21.615Z,78.45
2022-09-04T18:27:03.008Z,78.29
2022-09-04T18:32:38.382Z,78.49
2022-09-04T18:37:10.549Z,78.42
2022-09-04T18:37:24.935Z,78.22
2022-09-04T18:39:32.794Z,78.26
2022-09-04T18:50:09.863Z,78.42
2022-09-04T18:50:36.651Z,78.52
2022-09-04T18:50:44.805Z,78.72
2022-09-04T18:51:21.849Z,78.56
2022-09-04T18:54:18.969Z,78.12
2022-09-04T18:56:54.529Z,78.49
2022-09-04T18:59:30.296Z,78.04
2022-09-04T19:02:13.285Z,78.33
2022-09-04T19:04:56.690Z,78.42
2022-09-04T19:07:42.209Z,78.24
2022-09-04T19:10:32.383Z,78.02
2022-09-04T19:13:09.010Z,77.82
2022-09-04T19:16:04.931Z,78.36
2022-09-04T19:18:44.125Z,78.40
2022-09-04T19:21:29.404Z,78.17
2022-09-04T19:24:21.846Z,78.52
2022-09-04T19:26:56.788Z,78.02
2022-09-04T19:30:03.430Z,78.34
2022-09-04T19:33:05.081Z,78.29
2022-09-04T19:35:43.024Z,78.23
2022-09-04T19:41:16.686Z,77.69
2022-09-04T19:46:01.873Z,77.35
2022-09-04T19:46:11.592Z,76.68
2022-09-04T19:47:29.131Z,75.76
2022-09-04T19:53:18.583Z,75.72
2022-09-04T19:53:38.947Z,74.81
2022-09-04T19:56:26.875Z,74.29
2022-09-04T19:58:58.697Z,74.21
2022-09-04T20:01:39.785Z,73.96
2022-09-04T20:04:28.421Z,73.78
2022-09-04T20:07:03.292Z,74.03
2022-09-04T20:09:48.618Z,73.52
2022-09-04T20:12:24.286Z,73.67
2022-09-04T20:15:00.036Z,73.24
2022-09-04T20:18:09.406Z,73.49
2022-09-04T20:20:50.359Z,73.64
2022-09-04T20:23:35.174Z,73.55
2022-09-04T20:26:13.727Z,73.53
2022-09-04T20:28:48.783Z,73.91
2022-09-04T20:31:36.795Z,73.77
2022-09-04T20:34:30.501Z,73.90
2022-09-04T20:37:23.113Z,73.97
2022-09-04T20:40:19.787Z,73.97
2022-09-04T20:43:11.446Z,73.65
2022-09-04T20:50:59.084Z,74.09
2022-09-04T20:52:56.430Z,73.97
2022-09-04T20:53:05.454Z,73.90
2022-09-04T20:54:56.701Z,73.72
2022-09-04T21:02:57.824Z,74.10
2022-09-04T21:03:13.783Z,73.98
2022-09-04T21:03:39.574Z,74.08
2022-09-04T21:06:18.940Z,73.72
2022-09-04T21:08:57.969Z,73.75
2022-09-04T21:11:40.533Z,73.59
2022-09-04T21:14:45.576Z,73.85
2022-09-04T21:17:35.813Z,73.96
2022-09-04T21:20:41.615Z,74.09
2022-09-04T21:23:31.081Z,74.10
2022-09-04T21:26:19.246Z,74.42
2022-09-04T21:29:10.683Z,74.96
2022-09-04T21:32:13.789Z,75.25
2022-09-04T21:34:52.473Z,75.60
2022-09-04T21:37:42.794Z,76.40
2022-09-04T21:40:28.024Z,76.71
2022-09-04T21:43:13.495Z,76.78
2022-09-04T21:46:08.223Z,77.67
2022-09-04T21:49:07.812Z,77.89
2022-09-04T21:51:57.863Z,77.97
2022-09-04T21:54:38.236Z,78.62
2022-09-04T22:02:26.280Z,79.21
2022-09-04T22:02:39.912Z,78.90
2022-09-04T22:04:20.555Z,78.67
2022-09-04T22:10:08.429Z,79.17
2022-09-04T22:13:42.733Z,78.94
2022-09-04T22:13:49.084Z,78.89
2022-09-04T22:16:37.264Z,79.00
2022-09-04T22:19:36.704Z,78.94
2022-09-04T22:22:23.040Z,78.26
2022-09-04T22:25:21.364Z,79.17
2022-09-04T22:28:15.003Z,78.84
2022-09-04T22:31:32.309Z,78.22
2022-09-04T22:34:15.229Z,78.52
2022-09-04T22:37:35.392Z,78.09
2022-09-04T22:40:26.046Z,78.33
2022-09-04T22:43:17.996Z,77.91
2022-09-04T22:46:11.367Z,77.61
2022-09-04T22:48:47.831Z,78.38
2022-09-04T22:51:54.957Z,78.13
2022-09-04T22:54:45.240Z,78.61
2022-09-04T22:57:24.932Z,78.46
2022-09-04T23:00:16.002Z,78.24
2022-09-04T23:03:10.174Z,78.35
2022-09-04T23:08:48.244Z,79.28
2022-09-04T23:13:59.444Z,80.15
2022-09-04T23:14:01.605Z,79.68
2022-09-04T23:16:08.419Z,80.54
2022-09-04T23:20:19.024Z,80.34
2022-09-04T23:26:34.413Z,80.80
2022-09-04T23:26:57.961Z,81.36
2022-09-04T23:28:15.466Z,82.49
2022-09-04T23:31:39.829Z,82.62
2022-09-04T23:34:24.996Z,83.01
2022-09-04T23:37:02.815Z,83.19
2022-09-04T23:39:55.948Z,83.30
2022-09-04T23:42:39.879Z,83.63
2022-09-04T23:45:36.788Z,83.73
2022-09-04T23:48:20.202Z,84.02
2022-09-04T23:50:58.123Z,84.18
2022-09-04T23:53:45.213Z,84.37
2022-09-04T23:56:55.385Z,84.05
